Time;durP1;ratioP1;P1;durP2;ratioP2;P2;SDS_P1;SDS_P2;PMS_P1;PMS_P2;Temp;Humidity;BMP_temperature;BMP_pressure;BME280_temperature;BME280_humidity;BME280_pressure;Samples;Min_cycle;Max_cycle;Signal;HPM_P1;HPM_P2
2023/10/04 00:00:19;;;;;;;14.30;4.88;;;12.30;99.90;;;;;;4792683;29;20046;-77
2023/10/04 00:02:52;;;;;;;19.67;6.22;;;12.20;99.90;;;;;;4802722;29;20039;-77
2023/10/04 00:05:22;;;;;;;15.52;5.43;;;12.20;99.90;;;;;;4778958;29;20047;-77
2023/10/04 00:07:50;;;;;;;19.02;5.70;;;12.20;99.90;;;;;;4785248;29;20054;-78
2023/10/04 00:10:17;;;;;;;17.13;5.78;;;12.20;99.90;;;;;;4803492;29;20050;-77
2023/10/04 00:12:44;;;;;;;15.88;6.03;;;12.20;99.90;;;;;;4787835;29;20047;-76
2023/10/04 00:15:13;;;;;;;15.77;4.32;;;12.20;99.90;;;;;;4781057;29;20050;-77
2023/10/04 00:17:43;;;;;;;13.82;5.65;;;12.20;99.90;;;;;;4787952;29;20043;-77
2023/10/04 00:20:13;;;;;;;25.02;7.18;;;12.20;99.90;;;;;;4788701;29;20043;-77
2023/10/04 00:22:40;;;;;;;23.88;6.55;;;12.20;99.90;;;;;;4793091;29;20512;-77
2023/10/04 00:25:20;;;;;;;21.75;6.95;;;12.20;99.90;;;;;;4798989;29;20510;-77
2023/10/04 00:27:47;;;;;;;24.13;6.65;;;12.30;99.90;;;;;;4803405;29;20764;-77
2023/10/04 00:30:18;;;;;;;14.48;4.70;;;12.20;99.90;;;;;;4774050;29;20058;-76
2023/10/04 00:32:46;;;;;;;14.45;4.55;;;12.20;99.90;;;;;;4773094;29;20046;-76
2023/10/04 00:35:17;;;;;;;12.77;4.75;;;12.20;99.90;;;;;;4787848;29;20046;-76
2023/10/04 00:37:46;;;;;;;22.17;6.57;;;12.20;99.90;;;;;;4779682;29;20491;-76
2023/10/04 00:40:15;;;;;;;17.30;5.20;;;12.10;99.90;;;;;;4788219;29;20038;-76
2023/10/04 00:42:41;;;;;;;17.63;5.78;;;12.10;99.90;;;;;;4787106;29;20031;-77
2023/10/04 00:45:12;;;;;;;23.20;5.57;;;12.10;99.90;;;;;;4787705;29;20039;-76
2023/10/04 00:47:41;;;;;;;16.05;4.85;;;12.00;99.90;;;;;;4787622;29;20058;-76
2023/10/04 00:50:15;;;;;;;18.52;5.18;;;12.00;99.90;;;;;;4780893;29;20439;-76
2023/10/04 00:52:47;;;;;;;15.95;5.32;;;12.00;99.90;;;;;;4802077;29;20055;-76
2023/10/04 00:55:16;;;;;;;16.48;5.75;;;11.90;99.90;;;;;;4790149;29;20103;-76
2023/10/04 00:57:42;;;;;;;19.55;5.90;;;11.90;99.90;;;;;;4776595;29;20380;-76
2023/10/04 01:00:10;;;;;;;16.90;5.18;;;11.90;99.90;;;;;;4776700;29;20049;-76
2023/10/04 01:02:36;;;;;;;24.75;6.22;;;11.80;99.90;;;;;;4790951;29;20050;-76
2023/10/04 01:05:03;;;;;;;22.48;5.65;;;11.80;99.90;;;;;;4789928;29;20054;-77
2023/10/04 01:07:30;;;;;;;25.23;6.35;;;11.80;99.90;;;;;;4807809;29;20076;-76
2023/10/04 01:09:55;;;;;;;21.75;6.00;;;11.80;99.90;;;;;;4809648;29;20053;-77
2023/10/04 01:12:22;;;;;;;27.92;6.20;;;11.80;99.90;;;;;;4808138;29;20050;-76
2023/10/04 01:14:49;;;;;;;23.27;7.57;;;11.70;99.90;;;;;;4790536;29;20047;-76
2023/10/04 01:17:16;;;;;;;23.33;6.80;;;11.70;99.90;;;;;;4791142;29;20055;-76
2023/10/04 01:19:43;;;;;;;19.17;6.03;;;11.80;99.90;;;;;;4776578;29;20076;-76
2023/10/04 01:22:09;;;;;;;27.90;7.63;;;11.80;99.90;;;;;;4791288;29;20538;-76
2023/10/04 01:24:38;;;;;;;17.40;5.50;;;11.80;99.90;;;;;;4775722;29;20042;-76
2023/10/04 01:27:04;;;;;;;22.83;7.65;;;11.80;99.90;;;;;;4796374;29;20090;-76
2023/10/04 01:29:30;;;;;;;19.55;6.25;;;11.80;99.90;;;;;;4786522;29;20077;-76
2023/10/04 01:31:57;;;;;;;25.40;6.88;;;11.70;99.90;;;;;;4796183;29;20502;-76
2023/10/04 01:34:22;;;;;;;26.52;7.03;;;11.70;99.90;;;;;;4790161;29;20053;-76
2023/10/04 01:36:49;;;;;;;28.10;7.45;;;11.70;99.90;;;;;;4790898;29;20050;-76
2023/10/04 01:39:19;;;;;;;27.38;8.18;;;11.70;99.90;;;;;;4797426;29;20050;-76
2023/10/04 01:41:45;;;;;;;25.73;7.07;;;11.70;99.90;;;;;;4797956;29;20070;-76
2023/10/04 01:44:11;;;;;;;25.48;6.85;;;11.70;99.90;;;;;;4777045;30;20532;-76
2023/10/04 01:46:38;;;;;;;25.50;6.45;;;11.60;99.90;;;;;;4778592;30;20047;-76
2023/10/04 01:49:07;;;;;;;32.75;8.70;;;11.60;99.90;;;;;;4772952;30;20047;-76
2023/10/04 01:51:33;;;;;;;25.70;7.50;;;11.60;99.90;;;;;;4774057;29;20047;-76
2023/10/04 01:54:00;;;;;;;25.17;6.68;;;11.60;99.90;;;;;;4786635;29;20042;-77
2023/10/04 01:56:26;;;;;;;21.42;6.38;;;11.60;99.90;;;;;;4792260;29;20103;-76
2023/10/04 01:58:53;;;;;;;22.25;7.22;;;11.50;99.90;;;;;;4790830;29;20042;-76
2023/10/04 02:01:19;;;;;;;14.95;5.88;;;11.50;99.90;;;;;;4790529;29;20440;-76
2023/10/04 02:03:45;;;;;;;28.05;7.80;;;11.50;99.90;;;;;;4778813;30;20176;-76
2023/10/04 02:06:11;;;;;;;17.60;6.53;;;11.50;99.90;;;;;;4771385;30;20074;-77
2023/10/04 02:08:36;;;;;;;28.05;8.50;;;11.50;99.90;;;;;;4793681;29;20108;-76
2023/10/04 02:11:04;;;;;;;30.92;8.02;;;11.50;99.90;;;;;;4798241;29;20105;-76
2023/10/04 02:13:32;;;;;;;25.45;8.07;;;11.50;99.90;;;;;;4790202;29;20435;-76
2023/10/04 02:15:59;;;;;;;21.35;8.15;;;11.50;99.90;;;;;;4777476;29;20058;-76
2023/10/04 02:18:24;;;;;;;22.88;8.20;;;11.50;99.90;;;;;;4784799;29;20685;-76
2023/10/04 02:20:53;;;;;;;23.45;7.47;;;11.50;99.90;;;;;;4796304;29;20047;-76
2023/10/04 02:23:19;;;;;;;19.15;7.55;;;11.60;99.90;;;;;;4774731;29;20135;-76
2023/10/04 02:25:46;;;;;;;14.40;6.10;;;11.60;99.90;;;;;;4789922;29;20517;-76
2023/10/04 02:28:17;;;;;;;21.52;7.13;;;11.60;99.90;;;;;;4790075;29;20502;-76
2023/10/04 02:30:45;;;;;;;25.05;8.70;;;11.60;99.90;;;;;;4781032;29;20046;-76
2023/10/04 02:33:14;;;;;;;23.45;8.13;;;11.60;99.90;;;;;;4778503;29;20410;-76
2023/10/04 02:35:44;;;;;;;18.73;8.10;;;11.70;99.90;;;;;;4796974;29;20053;-76
2023/10/04 02:38:26;;;;;;;17.60;6.85;;;11.70;99.90;;;;;;4804971;29;20051;-76
2023/10/04 02:40:53;;;;;;;24.50;8.43;;;11.70;99.90;;;;;;4774922;29;20047;-76
2023/10/04 02:43:25;;;;;;;24.00;8.13;;;11.70;99.90;;;;;;4780261;29;20090;-76
2023/10/04 02:45:52;;;;;;;21.10;7.67;;;11.70;99.90;;;;;;4796421;29;20095;-76
2023/10/04 02:48:19;;;;;;;18.58;6.60;;;11.70;99.90;;;;;;4804592;29;20050;-76
2023/10/04 02:50:46;;;;;;;17.00;5.70;;;11.60;99.90;;;;;;4791228;29;20104;-76
2023/10/04 02:53:17;;;;;;;17.02;6.53;;;11.60;99.90;;;;;;4794781;29;20047;-76
2023/10/04 02:55:43;;;;;;;16.73;7.15;;;11.60;99.90;;;;;;4788675;29;20073;-76
2023/10/04 02:58:10;;;;;;;18.33;6.15;;;11.60;99.90;;;;;;4789622;29;20061;-76
2023/10/04 03:00:44;;;;;;;27.00;8.75;;;11.50;99.90;;;;;;4773492;29;20038;-76
2023/10/04 03:03:12;;;;;;;21.58;7.75;;;11.50;99.90;;;;;;4789227;29;20049;-76
2023/10/04 03:05:39;;;;;;;25.85;8.60;;;11.40;99.90;;;;;;4774062;29;20039;-76
2023/10/04 03:08:08;;;;;;;19.90;7.45;;;11.40;99.90;;;;;;4789176;29;20428;-76
2023/10/04 03:10:37;;;;;;;19.38;7.28;;;11.40;99.90;;;;;;4773273;29;20047;-76
2023/10/04 03:13:06;;;;;;;31.70;9.25;;;11.40;99.90;;;;;;4789096;29;20082;-76
2023/10/04 03:15:32;;;;;;;22.20;7.22;;;11.30;99.90;;;;;;4788184;29;20050;-76
2023/10/04 03:17:59;;;;;;;23.27;7.35;;;11.30;99.90;;;;;;4801589;29;20099;-76
2023/10/04 03:20:28;;;;;;;23.35;7.68;;;11.30;99.90;;;;;;4793226;29;20467;-76
2023/10/04 03:22:55;;;;;;;20.88;7.28;;;11.30;99.90;;;;;;4768265;29;20039;-76
2023/10/04 03:25:23;;;;;;;22.83;7.75;;;11.30;99.90;;;;;;4780545;29;20034;-76
2023/10/04 03:27:49;;;;;;;25.33;7.68;;;11.20;99.90;;;;;;4790097;29;20061;-76
2023/10/04 03:30:15;;;;;;;24.77;7.40;;;11.20;99.90;;;;;;4788059;29;20043;-76
2023/10/04 03:32:56;;;;;;;22.77;8.02;;;11.20;99.90;;;;;;4773376;29;20170;-76
2023/10/04 03:35:26;;;;;;;21.35;8.55;;;11.20;99.90;;;;;;4788753;29;20085;-76
2023/10/04 03:37:54;;;;;;;20.00;8.18;;;11.20;99.90;;;;;;4773475;29;20050;-76
2023/10/04 03:40:34;;;;;;;18.17;5.50;;;11.20;99.90;;;;;;4775254;29;20066;-76
2023/10/04 03:43:06;;;;;;;23.02;8.07;;;11.20;99.90;;;;;;4778982;30;20058;-76
2023/10/04 03:45:35;;;;;;;30.33;8.18;;;11.10;99.90;;;;;;4802742;29;20388;-76
2023/10/04 03:48:01;;;;;;;17.20;8.13;;;11.20;99.90;;;;;;4789094;29;20402;-76
2023/10/04 03:50:28;;;;;;;19.45;7.35;;;11.20;99.90;;;;;;4786950;29;20062;-76
2023/10/04 03:53:00;;;;;;;21.92;8.95;;;11.20;99.90;;;;;;4773389;29;20039;-76
2023/10/04 03:55:28;;;;;;;22.75;9.13;;;11.20;99.90;;;;;;4788104;29;20086;-76
2023/10/04 03:57:54;;;;;;;24.80;9.98;;;11.30;99.90;;;;;;4788049;29;20176;-76
2023/10/04 04:00:22;;;;;;;27.30;9.73;;;11.30;99.90;;;;;;4786945;29;20050;-76
2023/10/04 04:02:49;;;;;;;25.45;10.05;;;11.40;99.90;;;;;;4787938;29;20050;-76
2023/10/04 04:05:15;;;;;;;24.13;10.13;;;11.50;99.90;;;;;;4795219;29;20531;-76
2023/10/04 04:07:43;;;;;;;22.15;10.43;;;11.50;99.90;;;;;;4783648;29;20129;-76
2023/10/04 04:10:11;;;;;;;31.45;12.18;;;11.60;99.90;;;;;;4793890;29;20055;-76
2023/10/04 04:12:40;;;;;;;16.35;6.75;;;11.60;99.90;;;;;;4762834;29;20054;-76
2023/10/04 04:15:10;;;;;;;25.67;9.65;;;11.60;99.90;;;;;;4785272;30;20407;-76
2023/10/04 04:17:44;;;;;;;30.38;10.95;;;11.70;99.90;;;;;;4770322;30;20048;-76
2023/10/04 04:20:19;;;;;;;29.60;12.55;;;11.70;99.90;;;;;;4787347;29;20095;-77
2023/10/04 04:22:50;;;;;;;40.88;13.23;;;11.70;99.90;;;;;;4794384;29;20125;-77
2023/10/04 04:25:18;;;;;;;32.85;12.02;;;11.80;99.90;;;;;;4788194;29;20044;-77
2023/10/04 04:27:44;;;;;;;27.73;11.52;;;11.80;99.90;;;;;;4761754;30;20131;-77
2023/10/04 04:30:16;;;;;;;33.13;12.15;;;11.80;99.90;;;;;;4785837;29;20399;-77
2023/10/04 04:32:44;;;;;;;19.13;8.50;;;11.90;99.90;;;;;;4786864;29;20042;-77
2023/10/04 04:35:15;;;;;;;19.38;7.38;;;11.90;99.90;;;;;;4794213;29;20043;-77
2023/10/04 04:37:40;;;;;;;31.95;10.82;;;11.90;99.90;;;;;;4774049;29;20090;-77
2023/10/04 04:40:09;;;;;;;22.95;9.27;;;11.90;99.90;;;;;;4784272;29;20070;-77
2023/10/04 04:42:42;;;;;;;31.35;11.15;;;11.90;99.90;;;;;;4792210;29;20582;-77
2023/10/04 04:45:25;;;;;;;31.58;12.07;;;11.80;99.90;;;;;;4804378;29;20052;-77
2023/10/04 04:47:51;;;;;;;21.52;9.32;;;11.90;99.90;;;;;;4810005;29;20103;-77
2023/10/04 04:50:19;;;;;;;17.88;8.45;;;11.90;99.90;;;;;;4797546;29;20550;-77
2023/10/04 04:52:44;;;;;;;20.92;7.15;;;11.90;99.90;;;;;;4776333;29;20517;-77
2023/10/04 04:55:11;;;;;;;21.10;7.65;;;11.90;99.90;;;;;;4790247;29;20042;-77
2023/10/04 04:57:38;;;;;;;25.65;9.15;;;11.80;99.90;;;;;;4801472;29;20103;-76
2023/10/04 05:00:31;;;;;;;24.08;9.90;;;11.80;99.90;;;;;;4798549;29;20050;-77
2023/10/04 05:02:52;;;;;;;23.33;8.05;;;11.80;99.90;;;;;;4790753;29;20418;-77
2023/10/04 05:05:20;;;;;;;25.48;10.10;;;11.70;99.90;;;;;;4797216;29;20034;-77
2023/10/04 05:07:47;;;;;;;26.85;9.05;;;11.70;99.90;;;;;;4791379;29;20043;-77
2023/10/04 05:10:14;;;;;;;21.65;7.53;;;11.60;99.90;;;;;;4775817;29;20047;-76
2023/10/04 05:12:40;;;;;;;25.55;8.05;;;11.60;99.90;;;;;;4775602;29;20047;-76
2023/10/04 05:15:22;;;;;;;16.10;7.35;;;11.50;99.90;;;;;;4770104;30;20050;-77
2023/10/04 05:17:50;;;;;;;21.90;8.20;;;11.40;99.90;;;;;;4758310;30;20142;-78
2023/10/04 05:20:21;;;;;;;25.15;7.30;;;11.30;99.90;;;;;;4781808;29;20065;-79
2023/10/04 05:22:49;;;;;;;25.75;7.82;;;11.30;99.90;;;;;;4789709;29;20050;-78
2023/10/04 05:25:16;;;;;;;19.95;8.00;;;11.30;99.90;;;;;;4800335;29;20078;-79
2023/10/04 05:27:43;;;;;;;24.67;7.28;;;11.30;99.90;;;;;;4776660;29;20079;-79
2023/10/04 05:30:15;;;;;;;20.60;7.40;;;11.30;99.90;;;;;;4775226;29;20125;-77
2023/10/04 05:32:50;;;;;;;29.73;8.45;;;11.30;99.90;;;;;;4789744;29;20043;-76
2023/10/04 05:35:15;;;;;;;24.10;8.18;;;11.30;99.90;;;;;;4774436;29;20525;-76
2023/10/04 05:37:42;;;;;;;30.60;9.48;;;11.20;99.90;;;;;;4802431;29;20038;-76
2023/10/04 05:40:15;;;;;;;40.15;11.15;;;11.30;99.90;;;;;;4800632;29;20042;-76
2023/10/04 05:42:41;;;;;;;24.17;9.68;;;11.30;99.90;;;;;;4790592;29;20049;-76
2023/10/04 05:45:09;;;;;;;35.03;10.95;;;11.40;99.90;;;;;;4790810;29;20051;-76
2023/10/04 05:47:37;;;;;;;33.25;10.77;;;11.40;99.90;;;;;;4775143;29;20047;-76
2023/10/04 05:50:05;;;;;;;32.50;10.35;;;11.50;99.90;;;;;;4790254;29;20053;-76
2023/10/04 05:52:32;;;;;;;31.27;10.50;;;11.50;99.90;;;;;;4790513;29;20051;-77
2023/10/04 05:54:58;;;;;;;20.65;7.07;;;11.50;99.90;;;;;;4790703;29;20070;-76
2023/10/04 05:57:25;;;;;;;30.58;10.48;;;11.50;99.90;;;;;;4789981;29;20047;-77
2023/10/04 05:59:50;;;;;;;18.73;8.90;;;11.60;99.90;;;;;;4775739;29;20042;-76
2023/10/04 06:02:16;;;;;;;28.50;8.60;;;11.60;99.90;;;;;;4772728;29;20521;-76
2023/10/04 06:04:42;;;;;;;28.92;10.10;;;11.60;99.90;;;;;;4775532;29;20449;-77
2023/10/04 06:07:08;;;;;;;28.77;9.40;;;11.50;99.90;;;;;;4795590;29;20142;-76
2023/10/04 06:09:35;;;;;;;36.20;9.15;;;11.50;99.90;;;;;;4800992;29;20521;-76
2023/10/04 06:12:02;;;;;;;32.88;9.80;;;11.50;99.90;;;;;;4809054;29;20615;-77
2023/10/04 06:14:27;;;;;;;25.88;9.25;;;11.50;99.90;;;;;;4808467;29;20046;-76
2023/10/04 06:16:53;;;;;;;31.67;10.77;;;11.50;99.90;;;;;;4801817;29;20102;-76
2023/10/04 06:19:25;;;;;;;24.90;9.48;;;11.50;99.90;;;;;;4794595;29;20127;-76
2023/10/04 06:21:52;;;;;;;23.50;8.63;;;11.50;99.90;;;;;;4795819;29;20054;-76
2023/10/04 06:24:17;;;;;;;31.02;9.75;;;11.60;99.90;;;;;;4797575;29;20051;-76
2023/10/04 06:26:43;;;;;;;25.45;8.73;;;11.60;99.90;;;;;;4790035;29;20058;-77
2023/10/04 06:49:52;;;;;;;29.15;8.05;;;11.90;99.90;;;;;;5338047;23;20050;-76
2023/10/04 06:52:17;;;;;;;28.67;6.97;;;11.90;99.90;;;;;;4824336;29;20118;-76
2023/10/04 06:54:43;;;;;;;24.75;6.95;;;11.90;99.90;;;;;;4826842;29;20038;-77
2023/10/04 06:57:08;;;;;;;22.58;7.38;;;11.90;99.90;;;;;;4828821;29;20038;-77
2023/10/04 06:59:34;;;;;;;21.35;7.68;;;11.90;99.90;;;;;;4825349;29;20045;-77
2023/10/04 07:01:59;;;;;;;16.38;6.10;;;11.90;99.90;;;;;;4833483;29;20114;-77
2023/10/04 08:31:36;;;;;;;26.13;8.60;;;13.60;99.90;;;;;;5886414;23;19958;-75
2023/10/04 08:34:03;;;;;;;17.80;7.80;;;13.70;99.90;;;;;;4823014;29;20461;-77
2023/10/04 08:36:29;;;;;;;25.95;8.73;;;13.70;99.90;;;;;;4824306;29;20046;-77
2023/10/04 08:38:54;;;;;;;20.17;7.68;;;13.80;99.90;;;;;;4824881;29;20050;-78
2023/10/04 08:41:20;;;;;;;18.80;7.10;;;13.80;99.90;;;;;;4831703;29;20492;-77
2023/10/04 08:43:47;;;;;;;20.45;8.32;;;13.90;99.90;;;;;;4835697;29;20037;-77
2023/10/04 11:28:46;;;;;;;18.63;5.93;;;16.60;99.90;;;;;;4823244;29;20062;-79
2023/10/04 11:31:13;;;;;;;16.00;6.53;;;16.60;99.90;;;;;;4808590;29;20057;-79
2023/10/04 11:33:55;;;;;;;13.88;5.55;;;16.60;99.90;;;;;;4814159;29;20109;-78
2023/10/04 11:36:25;;;;;;;17.67;6.33;;;16.70;99.90;;;;;;4820477;29;20580;-78
2023/10/04 13:46:04;;;;;;;13.68;5.50;;;16.50;99.90;;;;;;4832740;29;20054;-79
2023/10/04 13:49:40;;;;;;;12.10;5.18;;;16.30;99.90;;;;;;4822333;29;20076;-83
2023/10/04 14:04:30;;;;;;;14.02;5.22;;;16.50;99.90;;;;;;4713020;30;20327;-81
2023/10/04 18:20:07;;;;;;;9.68;2.65;;;13.50;99.90;;;;;;5072730;23;20346;-80
2023/10/04 18:22:36;;;;;;;12.93;2.97;;;13.40;99.90;;;;;;4806708;29;20593;-77
2023/10/04 18:25:02;;;;;;;8.13;2.75;;;13.40;99.90;;;;;;4806669;29;20038;-78
2023/10/04 18:27:29;;;;;;;10.88;3.00;;;13.40;99.90;;;;;;4824641;29;20042;-79
2023/10/04 18:29:55;;;;;;;13.60;3.28;;;13.40;99.90;;;;;;4817862;29;20050;-79
2023/10/04 18:32:22;;;;;;;9.90;2.90;;;13.40;99.90;;;;;;4825324;29;20038;-79
2023/10/04 21:44:50;;;;;;;9.93;2.85;;;12.90;99.90;;;;;;4835149;29;20479;-77
2023/10/04 21:47:27;;;;;;;13.60;3.20;;;13.00;99.90;;;;;;4834549;29;20492;-77
2023/10/04 21:49:57;;;;;;;12.20;2.80;;;13.00;99.90;;;;;;4817189;29;20129;-77
2023/10/04 21:52:26;;;;;;;9.20;2.92;;;13.00;99.90;;;;;;4829262;29;20102;-77
2023/10/04 21:54:55;;;;;;;12.18;3.05;;;13.00;99.90;;;;;;4793460;29;20513;-77
2023/10/04 21:57:21;;;;;;;10.45;3.25;;;13.00;99.90;;;;;;4793555;29;20137;-77
2023/10/04 21:59:47;;;;;;;12.38;3.42;;;13.10;99.90;;;;;;4801612;29;20046;-77
2023/10/04 22:02:12;;;;;;;11.50;3.65;;;13.10;99.90;;;;;;4800907;29;20708;-77
2023/10/04 22:04:39;;;;;;;10.68;3.20;;;13.10;99.90;;;;;;4811441;29;20105;-78
2023/10/04 22:07:05;;;;;;;10.85;3.35;;;13.10;99.90;;;;;;4811758;29;20056;-77
2023/10/04 22:09:32;;;;;;;9.38;3.10;;;13.10;99.90;;;;;;4796308;29;20417;-77
2023/10/04 22:12:00;;;;;;;10.65;3.28;;;13.10;99.90;;;;;;4807750;29;20398;-77
2023/10/04 22:14:25;;;;;;;9.18;3.50;;;13.10;99.90;;;;;;4793210;29;20038;-77
2023/10/04 22:16:51;;;;;;;12.07;3.58;;;13.10;99.90;;;;;;4804594;29;20565;-77
2023/10/04 22:19:18;;;;;;;12.48;3.40;;;13.10;99.90;;;;;;4797355;29;20046;-77
2023/10/04 22:21:44;;;;;;;9.10;3.10;;;13.00;99.90;;;;;;4791436;29;20501;-77
2023/10/04 22:24:10;;;;;;;12.48;3.90;;;13.00;99.90;;;;;;4810322;29;20049;-77
2023/10/04 22:26:36;;;;;;;10.23;3.33;;;13.00;99.90;;;;;;4807275;29;20045;-77
2023/10/04 22:29:07;;;;;;;12.18;3.75;;;12.90;99.90;;;;;;4808595;29;20047;-77
2023/10/04 22:31:33;;;;;;;10.30;3.08;;;12.90;99.90;;;;;;4792375;29;20050;-77
2023/10/04 22:33:59;;;;;;;10.88;3.13;;;12.90;99.90;;;;;;4808160;29;20057;-77
2023/10/04 22:36:26;;;;;;;10.75;3.00;;;12.90;99.90;;;;;;4801157;29;20072;-77
2023/10/04 22:38:52;;;;;;;9.85;3.15;;;12.90;99.90;;;;;;4801934;29;20425;-77
2023/10/04 22:41:18;;;;;;;12.75;3.70;;;12.90;99.90;;;;;;4820352;29;20556;-77
2023/10/04 22:43:44;;;;;;;15.52;4.10;;;12.90;99.90;;;;;;4800461;29;20046;-77
2023/10/04 22:46:12;;;;;;;12.50;3.63;;;12.90;99.90;;;;;;4813844;29;20404;-77
2023/10/04 22:48:39;;;;;;;12.27;3.58;;;12.90;99.90;;;;;;4803209;29;20038;-77
2023/10/04 22:51:05;;;;;;;10.90;3.28;;;12.90;99.90;;;;;;4807970;29;20046;-77
2023/10/04 22:53:31;;;;;;;14.93;3.67;;;12.80;99.90;;;;;;4801366;29;20045;-77
2023/10/04 22:56:01;;;;;;;10.43;3.40;;;12.80;99.90;;;;;;4826066;29;20076;-77
2023/10/04 22:58:28;;;;;;;12.75;3.88;;;12.80;99.90;;;;;;4797313;29;20509;-77
2023/10/04 23:00:56;;;;;;;10.85;3.53;;;12.80;99.90;;;;;;4792804;29;20198;-77
2023/10/04 23:03:22;;;;;;;11.70;3.53;;;12.80;99.90;;;;;;4800037;29;20052;-78
2023/10/04 23:05:53;;;;;;;12.32;3.70;;;12.80;99.90;;;;;;4810547;29;20046;-78
2023/10/04 23:08:20;;;;;;;9.32;3.35;;;12.80;99.90;;;;;;4806216;29;20121;-77
2023/10/04 23:10:47;;;;;;;10.45;4.03;;;12.80;99.90;;;;;;4785445;29;20072;-77
2023/10/04 23:13:13;;;;;;;10.98;3.45;;;12.80;99.90;;;;;;4787429;29;20070;-77
2023/10/04 23:15:39;;;;;;;11.93;3.95;;;12.80;99.90;;;;;;4817092;29;20033;-77
2023/10/04 23:20:47;;;;;;;16.20;4.50;;;12.70;99.90;;;;;;4807381;29;20869;-77
2023/10/04 23:23:15;;;;;;;14.40;4.07;;;12.70;99.90;;;;;;4806821;29;20046;-77
2023/10/04 23:25:44;;;;;;;12.43;3.90;;;12.70;99.90;;;;;;4821714;29;20049;-77
2023/10/04 23:28:15;;;;;;;13.65;4.00;;;12.70;99.90;;;;;;4795611;29;20680;-77
2023/10/04 23:30:42;;;;;;;12.40;3.53;;;12.60;99.90;;;;;;4792229;29;20038;-77
2023/10/04 23:33:19;;;;;;;13.20;4.00;;;12.60;99.90;;;;;;4812989;29;20517;-77
2023/10/04 23:36:01;;;;;;;12.07;4.30;;;12.60;99.90;;;;;;4803405;29;20081;-77
2023/10/04 23:41:05;;;;;;;12.15;3.50;;;12.60;99.90;;;;;;4806383;29;20156;-77
2023/10/04 23:43:31;;;;;;;14.48;4.03;;;12.60;99.90;;;;;;4814811;29;20049;-77
2023/10/04 23:45:58;;;;;;;15.68;4.47;;;12.60;99.90;;;;;;4819428;29;20129;-77
2023/10/04 23:48:24;;;;;;;13.25;4.25;;;12.60;99.90;;;;;;4825515;29;20071;-77
2023/10/04 23:50:57;;;;;;;13.18;4.50;;;12.60;99.90;;;;;;4809922;29;20088;-77
2023/10/04 23:56:00;;;;;;;12.10;3.80;;;12.60;99.90;;;;;;4813370;29;20466;-77
2023/10/04 23:58:26;;;;;;;13.23;3.95;;;12.60;99.90;;;;;;4806754;29;20051;-77
